createdAt,value
2017-09-08T00:04:36.594Z,100157
2017-09-08T00:09:39.815Z,100155
2017-09-08T00:14:42.994Z,100150
2017-09-08T00:19:46.200Z,100146
2017-09-08T00:24:49.421Z,100141
2017-09-08T00:29:52.641Z,100143
2017-09-08T00:34:55.846Z,100144
2017-09-08T00:39:59.763Z,100139
2017-09-08T00:45:02.957Z,100140
2017-09-08T00:50:06.153Z,100139
2017-09-08T00:55:09.359Z,100141
2017-09-08T01:00:12.635Z,100140
2017-09-08T01:05:15.857Z,100138
2017-09-08T01:10:19.139Z,100126
2017-09-08T01:15:22.312Z,100117
2017-09-08T01:20:25.585Z,100117
2017-09-08T01:25:28.768Z,100118
2017-09-08T01:30:31.987Z,100109
2017-09-08T01:35:35.231Z,100102
2017-09-08T01:40:38.441Z,100103
2017-09-08T01:45:41.640Z,100094
2017-09-08T01:50:45.033Z,100095
2017-09-08T01:55:48.260Z,100094
2017-09-08T02:00:51.461Z,100094
2017-09-08T02:05:54.896Z,100088
2017-09-08T02:10:58.874Z,100093
2017-09-08T02:16:02.098Z,100086
2017-09-08T02:21:05.313Z,100075
2017-09-08T02:26:08.525Z,100073
2017-09-08T02:31:11.738Z,100061
2017-09-08T02:36:14.948Z,100054
2017-09-08T02:41:18.177Z,100040
2017-09-08T02:46:21.400Z,100043
2017-09-08T02:51:24.617Z,100027
2017-09-08T02:56:27.893Z,100027
2017-09-08T03:01:31.112Z,100020
2017-09-08T03:06:34.333Z,100018
2017-09-08T03:11:37.535Z,100025
2017-09-08T03:16:40.734Z,100020
2017-09-08T03:21:43.919Z,100017
2017-09-08T03:26:47.141Z,100013
2017-09-08T03:31:50.350Z,100009
2017-09-08T03:36:53.572Z,99998
2017-09-08T03:41:56.750Z,99987
2017-09-08T03:46:59.960Z,99985
2017-09-08T03:52:03.176Z,99978
2017-09-08T03:57:06.409Z,99971
2017-09-08T04:02:09.597Z,99968
2017-09-08T04:07:12.806Z,99968
2017-09-08T04:12:16.114Z,99962
2017-09-08T04:17:19.341Z,99966
2017-09-08T04:22:22.564Z,99958
2017-09-08T04:27:25.756Z,99964
2017-09-08T04:32:28.962Z,99953
2017-09-08T04:37:32.179Z,99955
2017-09-08T04:42:35.382Z,99956
2017-09-08T04:47:38.586Z,99955
2017-09-08T04:52:41.798Z,99955
2017-09-08T04:57:45.008Z,99939
2017-09-08T05:02:48.223Z,99934
2017-09-08T05:07:51.425Z,99928
2017-09-08T05:12:54.714Z,99923
2017-09-08T05:17:57.936Z,99925
2017-09-08T05:23:01.408Z,99919
2017-09-08T05:28:04.626Z,99915
2017-09-08T05:33:07.828Z,99902
2017-09-08T05:38:11.026Z,99911
2017-09-08T05:43:14.213Z,99916
2017-09-08T05:48:17.413Z,99902
2017-09-08T05:53:20.621Z,99894
2017-09-08T05:58:23.916Z,99897
2017-09-08T06:03:27.125Z,99904
2017-09-08T06:08:30.313Z,99899
2017-09-08T06:13:34.343Z,99892
2017-09-08T06:18:37.553Z,99908
2017-09-08T06:23:40.801Z,99909
2017-09-08T06:28:44.765Z,99904
2017-09-08T06:33:47.991Z,99909
2017-09-08T06:38:51.178Z,99893
2017-09-08T06:43:54.342Z,99896
2017-09-08T06:48:57.559Z,99895
2017-09-08T06:54:00.785Z,99901
2017-09-08T06:59:04.004Z,99901
2017-09-08T07:04:07.221Z,99899
2017-09-08T07:09:10.430Z,99888
2017-09-08T07:14:13.639Z,99878
2017-09-08T07:19:16.848Z,99871
2017-09-08T07:24:20.071Z,99880
2017-09-08T07:29:23.425Z,99869
2017-09-08T07:34:26.637Z,99852
2017-09-08T07:39:29.841Z,99842
2017-09-08T07:44:33.082Z,99825
2017-09-08T07:49:36.307Z,99822
2017-09-08T07:54:39.518Z,99820
2017-09-08T07:59:42.737Z,99825
2017-09-08T08:04:45.929Z,99832
2017-09-08T08:09:49.175Z,99830
2017-09-08T08:14:52.385Z,99830
2017-09-08T08:19:55.616Z,99833
2017-09-08T08:24:58.851Z,99832
2017-09-08T08:30:02.048Z,99842
2017-09-08T08:35:05.392Z,99840
2017-09-08T08:40:08.618Z,99841
2017-09-08T08:45:11.885Z,99841
2017-09-08T08:50:15.096Z,99840
2017-09-08T08:55:18.488Z,99834
2017-09-08T09:00:21.695Z,99827
2017-09-08T09:05:24.908Z,99822
2017-09-08T09:10:28.085Z,99801
2017-09-08T09:15:31.273Z,99806
2017-09-08T09:20:34.490Z,99790
2017-09-08T09:25:37.697Z,99783
2017-09-08T09:30:40.937Z,99779
2017-09-08T09:35:44.182Z,99775
2017-09-08T09:40:47.388Z,99772
2017-09-08T09:45:50.585Z,99766
2017-09-08T09:50:53.781Z,99766
2017-09-08T09:55:56.994Z,99765
2017-09-08T10:01:00.197Z,99761
2017-09-08T10:06:03.436Z,99752
2017-09-08T10:11:06.616Z,99747
2017-09-08T10:16:09.806Z,99756
2017-09-08T10:21:13.029Z,99741
2017-09-08T10:26:16.240Z,99740
2017-09-08T10:31:19.594Z,99726
2017-09-08T10:36:22.804Z,99725
2017-09-08T10:41:26.016Z,99730
2017-09-08T10:46:29.313Z,99719
2017-09-08T10:51:32.517Z,99717
2017-09-08T10:56:35.735Z,99718
2017-09-08T11:01:39.097Z,99697
2017-09-08T11:06:43.163Z,99691
2017-09-08T11:11:46.378Z,99684
2017-09-08T11:16:49.612Z,99683
2017-09-08T11:21:52.856Z,99692
2017-09-08T11:26:56.032Z,99689
2017-09-08T11:31:59.257Z,99679
2017-09-08T11:37:08.075Z,99659
2017-09-08T11:42:11.282Z,99647
2017-09-08T11:47:14.516Z,99642
2017-09-08T11:52:17.773Z,99653
2017-09-08T11:57:21.020Z,99648
2017-09-08T12:02:24.223Z,99647
2017-09-08T12:07:27.504Z,99648
2017-09-08T12:12:30.781Z,99628
2017-09-08T12:17:33.979Z,99629
2017-09-08T12:22:37.184Z,99632
2017-09-08T12:27:40.380Z,99625
2017-09-08T12:32:43.607Z,99616
2017-09-08T12:37:46.818Z,99604
2017-09-08T12:42:50.072Z,99601
2017-09-08T12:47:53.339Z,99598
2017-09-08T12:52:56.534Z,99603
2017-09-08T12:57:59.849Z,99583
2017-09-08T13:03:03.055Z,99587
2017-09-08T13:08:06.290Z,99578
2017-09-08T13:13:09.570Z,99577
2017-09-08T13:18:13.593Z,99568
2017-09-08T13:23:16.774Z,99563
2017-09-08T13:28:19.962Z,99547
2017-09-08T13:33:23.168Z,99538
2017-09-08T13:38:26.386Z,99544
2017-09-08T13:43:29.572Z,99531
2017-09-08T13:48:32.877Z,99530
2017-09-08T13:53:36.104Z,99521
2017-09-08T13:58:39.326Z,99523
2017-09-08T14:03:42.525Z,99511
2017-09-08T14:08:45.749Z,99506
2017-09-08T14:13:49.105Z,99495
2017-09-08T14:18:52.308Z,99492
2017-09-08T14:23:55.594Z,99489
2017-09-08T14:28:58.781Z,99493
2017-09-08T14:34:01.969Z,99489
2017-09-08T14:39:05.181Z,99472
2017-09-08T14:44:08.373Z,99476
2017-09-08T14:49:11.582Z,99468
2017-09-08T14:54:14.866Z,99468
2017-09-08T14:59:18.105Z,99471
2017-09-08T15:04:21.327Z,99466
2017-09-08T15:09:24.524Z,99460
2017-09-08T15:14:27.732Z,99451
2017-09-08T15:19:30.963Z,99448
2017-09-08T15:24:34.184Z,99457
2017-09-08T15:29:37.485Z,99443
2017-09-08T15:34:40.675Z,99435
2017-09-08T15:39:43.887Z,99435
2017-09-08T15:44:47.086Z,99439
2017-09-08T15:49:50.297Z,99427
2017-09-08T15:54:53.570Z,99431
2017-09-08T15:59:56.768Z,99421
2017-09-08T16:04:59.971Z,99416
2017-09-08T16:10:03.174Z,99407
2017-09-08T16:15:06.385Z,99396
2017-09-08T16:20:09.603Z,99394
2017-09-08T16:25:12.839Z,99389
2017-09-08T16:30:16.042Z,99380
2017-09-08T16:35:19.261Z,99384
2017-09-08T16:40:22.440Z,99381
2017-09-08T16:45:25.643Z,99375
2017-09-08T16:50:28.849Z,99377
2017-09-08T16:55:32.114Z,99366
2017-09-08T17:00:35.314Z,99358
2017-09-08T17:05:39.445Z,99370
2017-09-08T17:10:42.668Z,99370
2017-09-08T17:15:45.876Z,99364
2017-09-08T17:20:49.092Z,99372
2017-09-08T17:25:52.348Z,99355
2017-09-08T17:30:55.592Z,99358
2017-09-08T17:35:58.790Z,99348
2017-09-08T17:41:02.010Z,99339
2017-09-08T17:46:05.274Z,99327
2017-09-08T17:51:08.468Z,99331
2017-09-08T17:56:11.915Z,99327
2017-09-08T18:01:15.892Z,99323
2017-09-08T18:06:19.208Z,99331
2017-09-08T18:11:22.456Z,99300
2017-09-08T18:16:25.709Z,99308
2017-09-08T18:21:28.892Z,99296
2017-09-08T18:26:32.069Z,99293
2017-09-08T18:31:35.424Z,99295
2017-09-08T18:36:38.638Z,99280
2017-09-08T18:41:41.870Z,99273
2017-09-08T18:46:45.128Z,99275
2017-09-08T18:51:48.758Z,99278
2017-09-08T18:56:51.903Z,99262
2017-09-08T19:01:55.251Z,99261
2017-09-08T19:06:58.492Z,99250
2017-09-08T19:12:01.751Z,99245
2017-09-08T19:17:05.071Z,99239
2017-09-08T19:22:08.233Z,99221
2017-09-08T19:27:11.628Z,99223
2017-09-08T19:32:15.034Z,99214
2017-09-08T19:37:18.650Z,99222
2017-09-08T19:42:21.848Z,99215
2017-09-08T19:47:25.164Z,99213
2017-09-08T19:52:28.484Z,99197
2017-09-08T19:57:31.797Z,99190
2017-09-08T20:02:35.096Z,99187
2017-09-08T20:07:38.328Z,99182
2017-09-08T20:12:41.534Z,99179
2017-09-08T20:17:44.777Z,99160
2017-09-08T20:22:48.149Z,99149
2017-09-08T20:27:51.330Z,99142
2017-09-08T20:32:54.520Z,99145
2017-09-08T20:37:57.957Z,99144
2017-09-08T20:43:01.160Z,99139
2017-09-08T20:48:04.384Z,99143
2017-09-08T20:53:07.607Z,99135
2017-09-08T20:58:10.789Z,99138
2017-09-08T21:03:14.021Z,99148
2017-09-08T21:08:17.328Z,99116
2017-09-08T21:13:20.509Z,99135
2017-09-08T21:18:23.815Z,99131
2017-09-08T21:23:26.983Z,99126
2017-09-08T21:28:30.170Z,99110
2017-09-08T21:33:33.387Z,99110
2017-09-08T21:38:37.487Z,99106
2017-09-08T21:43:40.671Z,99104
2017-09-08T21:48:43.863Z,99102
2017-09-08T21:53:47.058Z,99097
2017-09-08T21:58:50.271Z,99086
2017-09-08T22:03:53.508Z,99091
2017-09-08T22:08:56.761Z,99081
2017-09-08T22:14:00.057Z,99084
2017-09-08T22:19:03.275Z,99070
2017-09-08T22:24:06.519Z,99069
2017-09-08T22:29:09.730Z,99062
2017-09-08T22:34:12.929Z,99063
2017-09-08T22:39:16.126Z,99048
2017-09-08T22:44:19.352Z,99050
2017-09-08T22:49:22.575Z,99042
2017-09-08T22:54:31.803Z,99034
2017-09-08T22:59:35.024Z,99023
2017-09-08T23:04:38.249Z,99028
2017-09-08T23:09:41.466Z,99027
2017-09-08T23:14:44.609Z,99018
2017-09-08T23:19:47.805Z,99014
2017-09-08T23:24:51.071Z,99005
2017-09-08T23:29:54.270Z,99001
2017-09-08T23:34:57.473Z,98994
2017-09-08T23:40:00.681Z,98989
2017-09-08T23:45:03.899Z,98983
2017-09-08T23:50:07.060Z,98981
2017-09-08T23:55:10.253Z,98966
